createdAt,value
2022-11-19T00:00:35.465Z,18.70
2022-11-19T00:03:23.356Z,17.70
2022-11-19T00:05:51.523Z,19.50
2022-11-19T00:08:39.097Z,19.30
2022-11-19T00:11:11.107Z,20.00
2022-11-19T00:13:58.055Z,18.90
2022-11-19T00:16:25.995Z,17.30
2022-11-19T00:19:00.105Z,17.40
2022-11-19T00:21:29.833Z,18.70
2022-11-19T00:23:57.924Z,17.40
2022-11-19T00:26:26.058Z,17.50
2022-11-19T00:28:54.981Z,17.20
2022-11-19T00:31:23.186Z,17.60
2022-11-19T00:33:51.251Z,16.50
2022-11-19T00:36:19.436Z,17.70
2022-11-19T00:38:47.466Z,17.60
2022-11-19T00:41:15.761Z,17.50
2022-11-19T00:43:50.305Z,17.90
2022-11-19T00:46:21.398Z,15.90
2022-11-19T00:48:51.859Z,15.90
2022-11-19T00:51:22.220Z,14.70
2022-11-19T00:53:51.023Z,14.50
2022-11-19T00:56:22.106Z,15.80
2022-11-19T00:58:51.095Z,14.80
2022-11-19T01:01:22.611Z,14.10
2022-11-19T01:03:51.316Z,15.50
2022-11-19T01:06:22.079Z,15.20
2022-11-19T01:08:51.956Z,15.30
2022-11-19T01:11:23.917Z,16.10
2022-11-19T01:13:52.182Z,16.70
2022-11-19T01:16:23.838Z,15.10
2022-11-19T01:18:52.910Z,16.40
2022-11-19T01:21:23.652Z,15.60
2022-11-19T01:23:51.700Z,15.10
2022-11-19T01:26:20.639Z,14.70
2022-11-19T01:28:49.316Z,15.20
2022-11-19T01:31:27.157Z,15.80
2022-11-19T01:33:55.766Z,16.20
2022-11-19T01:36:29.339Z,16.60
2022-11-19T01:38:57.776Z,18.40
2022-11-19T01:41:32.193Z,18.50
2022-11-19T01:44:06.187Z,19.60
2022-11-19T01:46:37.757Z,20.00
2022-11-19T01:49:17.389Z,20.20
2022-11-19T01:52:01.081Z,19.10
2022-11-19T01:54:55.555Z,16.30
2022-11-19T01:57:23.797Z,16.00
2022-11-19T01:59:52.906Z,15.80
2022-11-19T02:02:23.932Z,15.20
2022-11-19T02:04:57.977Z,15.10
2022-11-19T02:07:29.667Z,15.40
2022-11-19T02:10:12.437Z,15.30
2022-11-19T02:13:05.922Z,18.40
2022-11-19T02:15:57.307Z,18.20
2022-11-19T02:18:44.054Z,17.80
2022-11-19T02:21:30.252Z,18.90
2022-11-19T02:24:15.337Z,17.60
2022-11-19T02:27:05.156Z,17.10
2022-11-19T02:30:13.569Z,17.10
2022-11-19T02:32:50.688Z,17.80
2022-11-19T02:35:40.441Z,16.20
2022-11-19T02:38:33.337Z,16.60
2022-11-19T02:41:39.006Z,15.60
2022-11-19T02:44:30.869Z,15.00
2022-11-19T02:47:03.696Z,15.70
2022-11-19T02:49:37.286Z,15.30
2022-11-19T02:52:05.862Z,15.00
2022-11-19T02:54:33.840Z,15.70
2022-11-19T02:57:03.035Z,16.00
2022-11-19T03:00:16.764Z,16.60
2022-11-19T03:03:27.718Z,16.30
2022-11-19T03:06:18.861Z,16.80
2022-11-19T03:08:47.940Z,16.70
2022-11-19T03:11:26.787Z,19.10
2022-11-19T03:14:22.524Z,18.50
2022-11-19T03:16:59.255Z,19.50
2022-11-19T03:19:33.167Z,19.30
2022-11-19T03:22:30.947Z,18.60
2022-11-19T03:25:09.251Z,19.70
2022-11-19T03:27:54.376Z,18.90
2022-11-19T03:30:22.831Z,18.30
2022-11-19T03:32:57.371Z,18.30
2022-11-19T03:35:55.271Z,18.60
2022-11-19T03:38:36.509Z,18.10
2022-11-19T03:41:06.827Z,18.20
2022-11-19T03:43:39.539Z,18.80
2022-11-19T03:46:14.522Z,18.20
2022-11-19T03:48:48.036Z,19.20
2022-11-19T03:51:24.797Z,19.00
2022-11-19T03:53:53.559Z,20.20
2022-11-19T03:56:30.746Z,19.20
2022-11-19T03:58:59.391Z,18.90
2022-11-19T04:01:27.483Z,20.00
2022-11-19T04:04:14.373Z,19.30
2022-11-19T04:06:42.286Z,20.00
2022-11-19T04:09:10.438Z,20.20
2022-11-19T04:11:38.542Z,19.70
2022-11-19T04:14:06.818Z,20.90
2022-11-19T04:16:35.178Z,20.30
2022-11-19T04:19:03.303Z,19.70
2022-11-19T04:21:31.325Z,21.10
2022-11-19T04:23:59.602Z,21.30
2022-11-19T04:26:27.617Z,20.60
2022-11-19T04:28:55.742Z,20.00
2022-11-19T04:31:23.883Z,21.10
2022-11-19T04:33:52.217Z,20.70
2022-11-19T04:36:20.678Z,20.60
2022-11-19T04:38:48.940Z,20.00
2022-11-19T04:41:17.055Z,21.00
2022-11-19T04:43:45.096Z,20.80
2022-11-19T04:46:13.139Z,21.40
2022-11-19T04:48:41.326Z,22.10
2022-11-19T04:51:09.408Z,20.80
2022-11-19T04:53:38.859Z,20.80
2022-11-19T04:56:07.956Z,21.60
2022-11-19T04:58:39.196Z,21.40
2022-11-19T05:01:08.159Z,21.50
2022-11-19T05:03:36.452Z,22.00
2022-11-19T05:06:04.891Z,22.00
2022-11-19T05:08:32.924Z,21.80
2022-11-19T05:11:01.066Z,22.80
2022-11-19T05:13:29.531Z,23.30
2022-11-19T05:15:57.692Z,22.40
2022-11-19T05:18:25.785Z,23.80
2022-11-19T05:20:53.980Z,23.90
2022-11-19T05:23:22.053Z,22.90
2022-11-19T05:25:50.123Z,22.10
2022-11-19T05:28:18.544Z,22.30
2022-11-19T05:30:46.742Z,23.20
2022-11-19T05:33:14.810Z,21.80
2022-11-19T05:35:42.899Z,21.70
2022-11-19T05:38:11.043Z,22.00
2022-11-19T05:40:39.252Z,22.50
2022-11-19T05:43:07.807Z,21.90
2022-11-19T05:45:36.297Z,22.60
2022-11-19T05:48:04.896Z,22.20
2022-11-19T05:50:33.035Z,23.30
2022-11-19T05:53:01.221Z,23.50
2022-11-19T05:55:29.349Z,24.90
2022-11-19T05:57:57.475Z,23.50
2022-11-19T06:00:25.829Z,24.80
2022-11-19T06:02:53.820Z,25.20
2022-11-19T06:05:21.948Z,24.10
2022-11-19T06:07:50.075Z,24.30
2022-11-19T06:10:18.058Z,24.00
2022-11-19T06:12:47.058Z,24.50
2022-11-19T06:15:15.378Z,24.90
2022-11-19T06:17:43.336Z,23.70
2022-11-19T06:20:11.555Z,22.90
2022-11-19T06:22:40.213Z,24.10
2022-11-19T06:25:08.897Z,24.50
2022-11-19T06:27:36.986Z,23.90
2022-11-19T06:30:07.868Z,24.60
2022-11-19T06:32:36.079Z,24.60
2022-11-19T06:35:04.854Z,24.80
2022-11-19T06:37:33.017Z,23.70
2022-11-19T06:40:01.055Z,23.70
2022-11-19T06:42:38.486Z,23.40
2022-11-19T06:45:10.606Z,24.10
2022-11-19T06:47:41.229Z,24.00
2022-11-19T06:50:11.051Z,24.30
2022-11-19T06:52:39.205Z,23.90
2022-11-19T06:55:07.539Z,24.80
2022-11-19T06:57:36.186Z,23.80
2022-11-19T07:00:05.230Z,23.80
2022-11-19T07:02:36.650Z,22.90
2022-11-19T07:05:06.236Z,22.70
2022-11-19T07:07:35.277Z,24.40
2022-11-19T07:10:03.780Z,24.60
2022-11-19T07:12:32.058Z,24.80
2022-11-19T07:15:04.241Z,23.70
2022-11-19T07:17:33.321Z,23.90
2022-11-19T07:20:02.231Z,24.40
2022-11-19T07:22:30.286Z,25.00
2022-11-19T07:24:58.388Z,23.10
2022-11-19T07:27:26.427Z,24.30
2022-11-19T07:29:54.430Z,23.40
2022-11-19T07:32:22.850Z,24.30
2022-11-19T07:34:50.946Z,24.50
2022-11-19T07:37:19.320Z,23.90
2022-11-19T07:39:47.460Z,24.10
2022-11-19T07:42:34.075Z,24.60
2022-11-19T07:45:03.279Z,25.00
2022-11-19T07:47:33.314Z,25.70
2022-11-19T07:50:01.978Z,23.80
2022-11-19T07:52:31.006Z,24.30
2022-11-19T07:54:59.216Z,25.20
2022-11-19T07:57:30.242Z,24.50
2022-11-19T07:59:59.473Z,25.70
2022-11-19T08:02:27.681Z,24.10
2022-11-19T08:04:55.777Z,32.50
2022-11-19T08:07:24.099Z,26.60
2022-11-19T08:09:52.314Z,27.00
2022-11-19T08:12:20.462Z,27.90
2022-11-19T08:14:48.481Z,26.30
2022-11-19T08:17:35.665Z,26.00
2022-11-19T08:20:08.234Z,24.90
2022-11-19T08:22:37.298Z,24.70
2022-11-19T08:25:06.536Z,25.60
2022-11-19T08:27:35.137Z,24.70
2022-11-19T08:30:03.640Z,25.30
2022-11-19T08:32:31.803Z,24.90
2022-11-19T08:35:00.064Z,24.10
2022-11-19T08:37:28.083Z,23.20
2022-11-19T08:39:56.318Z,23.10
2022-11-19T08:42:45.074Z,23.70
2022-11-19T08:45:16.826Z,23.00
2022-11-19T08:47:49.174Z,22.40
2022-11-19T08:50:17.902Z,24.80
2022-11-19T08:52:46.128Z,25.30
2022-11-19T08:55:14.290Z,24.10
2022-11-19T08:57:42.215Z,23.40
2022-11-19T09:00:10.921Z,25.40
2022-11-19T09:02:39.095Z,26.20
2022-11-19T09:05:14.418Z,25.20
2022-11-19T09:07:43.049Z,27.30
2022-11-19T09:10:11.213Z,26.50
2022-11-19T09:12:39.337Z,26.10
2022-11-19T09:15:09.019Z,34.00
2022-11-19T09:17:38.452Z,26.10
2022-11-19T09:20:09.069Z,26.60
2022-11-19T09:22:37.548Z,26.90
2022-11-19T09:25:06.576Z,28.70
2022-11-19T09:27:34.729Z,29.20
2022-11-19T09:30:04.221Z,35.30
2022-11-19T09:32:33.725Z,30.90
2022-11-19T09:35:02.412Z,29.10
2022-11-19T09:37:34.241Z,30.40
2022-11-19T09:40:04.797Z,32.60
2022-11-19T09:43:03.918Z,32.80
2022-11-19T09:46:10.731Z,28.60
2022-11-19T09:48:39.458Z,32.10
2022-11-19T09:51:15.245Z,31.50
2022-11-19T09:54:02.936Z,38.20
2022-11-19T09:56:43.176Z,32.70
2022-11-19T09:59:33.521Z,28.90
2022-11-19T10:02:02.321Z,30.30
2022-11-19T10:04:33.878Z,29.80
2022-11-19T10:07:45.076Z,45.30
2022-11-19T10:10:28.358Z,26.00
2022-11-19T10:13:15.575Z,29.70
2022-11-19T10:16:02.237Z,36.30
2022-11-19T10:18:49.300Z,26.60
2022-11-19T10:21:17.456Z,25.20
2022-11-19T10:24:00.992Z,24.10
2022-11-19T10:26:39.743Z,24.40
2022-11-19T10:29:22.798Z,23.40
2022-11-19T10:31:52.292Z,24.40
2022-11-19T10:34:29.616Z,25.10
2022-11-19T10:37:03.639Z,20.60
2022-11-19T10:39:38.650Z,19.60
2022-11-19T10:42:24.059Z,20.30
2022-11-19T10:44:59.298Z,21.10
2022-11-19T10:47:42.150Z,21.50
2022-11-19T10:50:22.350Z,20.70
2022-11-19T10:52:58.302Z,20.40
2022-11-19T10:55:38.226Z,18.70
2022-11-19T10:58:27.268Z,20.00
2022-11-19T11:00:58.520Z,19.40
2022-11-19T11:03:33.579Z,20.00
2022-11-19T11:06:10.150Z,18.50
2022-11-19T11:09:00.283Z,18.80
2022-11-19T11:11:52.059Z,17.80
2022-11-19T11:14:41.494Z,18.20
2022-11-19T11:17:20.195Z,18.20
2022-11-19T11:20:21.821Z,18.30
2022-11-19T11:23:03.104Z,17.00
2022-11-19T11:25:31.484Z,15.20
2022-11-19T11:28:17.039Z,16.00
2022-11-19T11:30:58.651Z,15.80
2022-11-19T11:33:41.776Z,16.10
2022-11-19T11:36:23.033Z,16.00
2022-11-19T11:38:55.417Z,15.30
2022-11-19T11:44:32.015Z,15.60
2022-11-19T11:47:12.862Z,16.40
2022-11-19T11:49:44.864Z,17.30
2022-11-19T11:52:12.846Z,16.70
2022-11-19T11:55:13.107Z,17.80
2022-11-19T11:57:56.070Z,16.70
2022-11-19T12:00:30.614Z,17.00
2022-11-19T12:03:01.876Z,17.60
2022-11-19T12:05:40.977Z,17.80
2022-11-19T12:08:27.756Z,18.80
2022-11-19T12:11:15.835Z,18.60
2022-11-19T12:13:59.202Z,18.90
2022-11-19T12:16:39.853Z,17.90
2022-11-19T12:19:43.106Z,17.70
2022-11-19T12:22:42.911Z,16.40
2022-11-19T12:25:21.848Z,17.50
2022-11-19T12:28:21.499Z,17.10
2022-11-19T12:30:56.719Z,15.30
2022-11-19T12:34:15.164Z,15.90
2022-11-19T12:36:52.056Z,16.50
2022-11-19T12:39:41.679Z,16.30
2022-11-19T12:42:28.107Z,16.90
2022-11-19T12:45:36.675Z,15.70
2022-11-19T12:48:26.270Z,12.80
2022-11-19T12:51:00.131Z,15.90
2022-11-19T12:54:07.185Z,15.20
2022-11-19T12:56:47.315Z,15.50
2022-11-19T12:59:37.619Z,14.90
2022-11-19T13:02:35.658Z,15.30
2022-11-19T13:05:19.031Z,17.00
2022-11-19T13:07:56.905Z,15.40
2022-11-19T13:10:42.692Z,14.70
2022-11-19T13:13:16.847Z,14.40
2022-11-19T13:16:29.525Z,15.20
2022-11-19T13:19:15.279Z,14.70
2022-11-19T13:21:54.278Z,14.50
2022-11-19T13:24:28.268Z,14.00
2022-11-19T13:27:01.396Z,14.70
2022-11-19T13:30:05.731Z,14.50
2022-11-19T13:33:08.276Z,15.00
2022-11-19T13:35:48.199Z,13.80
2022-11-19T13:38:32.357Z,14.10
2022-11-19T13:41:09.626Z,12.10
2022-11-19T13:43:56.509Z,15.60
2022-11-19T13:46:39.434Z,13.60
2022-11-19T13:49:15.522Z,12.10
2022-11-19T13:51:53.012Z,12.50
2022-11-19T13:54:35.300Z,12.20
2022-11-19T13:57:06.129Z,11.90
2022-11-19T13:59:34.519Z,11.50
2022-11-19T14:02:05.195Z,12.20
2022-11-19T14:05:02.898Z,13.70
2022-11-19T14:07:31.541Z,15.00
2022-11-19T14:10:13.565Z,17.70
2022-11-19T14:12:56.758Z,17.60
2022-11-19T14:16:07.807Z,17.50
2022-11-19T14:19:00.005Z,19.80
2022-11-19T14:21:46.909Z,18.60
2022-11-19T14:25:06.336Z,16.80
2022-11-19T14:27:35.253Z,17.20
2022-11-19T14:30:18.340Z,17.10
2022-11-19T14:32:52.667Z,16.00
2022-11-19T14:35:23.635Z,16.90
2022-11-19T14:37:55.076Z,17.30
2022-11-19T14:40:29.831Z,18.50
2022-11-19T14:43:19.487Z,18.30
2022-11-19T14:46:13.696Z,16.80
2022-11-19T14:48:42.054Z,16.50
2022-11-19T14:51:16.976Z,16.80
2022-11-19T14:54:09.836Z,18.40
2022-11-19T14:56:38.651Z,18.40
2022-11-19T14:59:15.857Z,21.30
2022-11-19T15:01:53.136Z,19.60
2022-11-19T15:04:24.677Z,20.30
2022-11-19T15:06:53.021Z,22.20
2022-11-19T15:09:52.168Z,20.70
2022-11-19T15:12:21.616Z,20.60
2022-11-19T15:15:05.230Z,20.00
2022-11-19T15:17:35.652Z,19.70
2022-11-19T15:20:36.440Z,19.40
2022-11-19T15:23:07.227Z,20.30
2022-11-19T15:26:01.256Z,21.40
2022-11-19T15:28:47.605Z,21.20
2022-11-19T15:31:37.555Z,21.80
2022-11-19T15:34:48.768Z,23.10
2022-11-19T15:37:34.144Z,22.10
2022-11-19T15:40:03.518Z,24.10
2022-11-19T15:42:39.018Z,25.10
2022-11-19T15:45:20.727Z,28.90
2022-11-19T15:48:14.808Z,29.80
2022-11-19T15:50:44.297Z,27.90
2022-11-19T15:53:15.074Z,32.30
2022-11-19T15:56:08.372Z,31.20
2022-11-19T15:58:45.323Z,40.80
2022-11-19T16:01:20.690Z,50.10
2022-11-19T16:03:52.215Z,33.70
2022-11-19T16:06:24.460Z,40.30
2022-11-19T16:08:56.063Z,36.80
2022-11-19T16:11:47.817Z,33.80
2022-11-19T16:14:42.404Z,39.00
2022-11-19T16:17:30.445Z,43.40
2022-11-19T16:20:10.896Z,39.70
2022-11-19T16:22:50.986Z,39.70
2022-11-19T16:25:35.787Z,38.40
2022-11-19T16:28:13.839Z,36.80
2022-11-19T16:30:46.697Z,39.00
2022-11-19T16:33:21.754Z,33.60
2022-11-19T16:35:53.561Z,38.30
2022-11-19T16:38:31.319Z,38.10
2022-11-19T16:41:34.876Z,38.60
2022-11-19T16:44:12.835Z,45.00
2022-11-19T16:46:41.386Z,44.50
2022-11-19T16:49:31.214Z,43.40
2022-11-19T16:51:59.924Z,44.60
2022-11-19T16:54:49.556Z,45.50
2022-11-19T16:57:21.089Z,48.50
2022-11-19T17:00:20.010Z,52.80
2022-11-19T17:02:49.001Z,59.00
2022-11-19T17:05:23.433Z,56.90
2022-11-19T17:08:05.216Z,65.00
2022-11-19T17:10:34.822Z,70.10
2022-11-19T17:13:29.079Z,66.20
2022-11-19T17:16:18.550Z,65.80
2022-11-19T17:18:46.740Z,59.70
2022-11-19T17:21:28.981Z,68.30
2022-11-19T17:23:57.400Z,63.90
2022-11-19T17:26:27.766Z,63.40
2022-11-19T17:29:11.520Z,63.30
2022-11-19T17:31:48.603Z,71.10
2022-11-19T17:34:46.384Z,70.40
2022-11-19T17:37:15.219Z,72.00
2022-11-19T17:39:43.365Z,74.10
2022-11-19T17:42:30.086Z,69.40
2022-11-19T17:44:59.846Z,70.00
2022-11-19T17:47:28.152Z,63.50
2022-11-19T17:49:56.544Z,64.10
2022-11-19T17:52:27.876Z,66.70
2022-11-19T17:54:59.013Z,66.40
2022-11-19T17:57:27.122Z,68.90
2022-11-19T17:59:55.159Z,73.00
2022-11-19T18:02:23.492Z,67.50
2022-11-19T18:04:52.373Z,70.30
2022-11-19T18:07:20.467Z,78.60
2022-11-19T18:09:48.726Z,76.10
2022-11-19T18:12:18.980Z,75.80
2022-11-19T18:14:47.678Z,83.90
2022-11-19T18:17:16.039Z,73.80
2022-11-19T18:19:44.333Z,82.00
2022-11-19T18:22:18.946Z,76.00
2022-11-19T18:24:52.105Z,82.50
2022-11-19T18:27:20.329Z,73.60
2022-11-19T18:29:48.470Z,76.30
2022-11-19T18:32:17.249Z,72.20
2022-11-19T18:34:46.309Z,80.10
2022-11-19T18:37:14.556Z,72.80
2022-11-19T18:39:42.691Z,74.40
2022-11-19T18:42:12.901Z,72.50
2022-11-19T18:44:43.781Z,71.50
2022-11-19T18:47:15.556Z,71.90
2022-11-19T18:49:43.841Z,68.80
2022-11-19T18:52:16.200Z,70.20
2022-11-19T18:54:44.892Z,68.50
2022-11-19T18:57:14.001Z,67.00
2022-11-19T18:59:41.997Z,72.00
2022-11-19T19:02:11.169Z,69.40
2022-11-19T19:04:39.490Z,72.80
2022-11-19T19:07:07.786Z,64.50
2022-11-19T19:09:37.652Z,67.30
2022-11-19T19:12:18.630Z,66.70
2022-11-19T19:14:49.331Z,67.60
2022-11-19T19:17:17.806Z,63.70
2022-11-19T19:19:47.751Z,66.40
2022-11-19T19:22:15.996Z,61.00
2022-11-19T19:24:44.577Z,63.30
2022-11-19T19:27:12.711Z,62.40
2022-11-19T19:29:41.619Z,67.40
2022-11-19T19:32:10.072Z,62.70
2022-11-19T19:34:38.301Z,67.90
2022-11-19T19:37:06.701Z,63.00
2022-11-19T19:39:34.859Z,63.90
2022-11-19T19:42:03.082Z,65.10
2022-11-19T19:44:31.252Z,62.20
2022-11-19T19:46:59.736Z,65.60
2022-11-19T19:49:28.046Z,66.90
2022-11-19T19:51:56.321Z,64.70
2022-11-19T19:54:24.602Z,62.50
2022-11-19T19:56:53.476Z,63.40
2022-11-19T19:59:21.749Z,64.70
2022-11-19T20:01:51.854Z,67.10
2022-11-19T20:04:20.201Z,64.60
2022-11-19T20:06:48.641Z,63.20
2022-11-19T20:09:17.183Z,63.20
2022-11-19T20:11:45.576Z,63.20
2022-11-19T20:14:13.783Z,68.80
2022-11-19T20:16:42.177Z,65.70
2022-11-19T20:19:15.192Z,63.10
2022-11-19T20:21:43.772Z,62.70
2022-11-19T20:24:13.748Z,65.90
2022-11-19T20:26:43.193Z,68.60
2022-11-19T20:29:14.273Z,62.90
2022-11-19T20:31:47.235Z,63.00
2022-11-19T20:34:17.049Z,61.60
2022-11-19T20:36:46.777Z,63.60
2022-11-19T20:39:15.460Z,63.90
2022-11-19T20:42:02.233Z,64.00
2022-11-19T20:44:30.645Z,63.90
2022-11-19T20:47:04.101Z,63.10
2022-11-19T20:49:35.309Z,58.00
2022-11-19T20:52:03.996Z,58.90
2022-11-19T20:54:34.533Z,59.20
2022-11-19T20:57:02.988Z,59.30
2022-11-19T20:59:31.221Z,60.80
2022-11-19T21:01:59.653Z,62.30
2022-11-19T21:04:36.661Z,62.30
2022-11-19T21:07:05.538Z,62.00
2022-11-19T21:09:33.976Z,62.80
2022-11-19T21:12:02.550Z,62.50
2022-11-19T21:14:30.825Z,60.30
2022-11-19T21:16:59.116Z,59.10
2022-11-19T21:19:27.323Z,60.00
2022-11-19T21:21:55.576Z,59.00
2022-11-19T21:24:23.801Z,60.50
2022-11-19T21:26:52.310Z,64.00
2022-11-19T21:29:20.797Z,66.10
2022-11-19T21:31:49.520Z,62.30
2022-11-19T21:34:20.827Z,63.80
2022-11-19T21:36:49.942Z,58.70
2022-11-19T21:39:19.943Z,60.60
2022-11-19T21:41:48.956Z,59.10
2022-11-19T21:44:21.483Z,60.60
2022-11-19T21:46:50.431Z,58.60
2022-11-19T21:49:19.059Z,62.00
2022-11-19T21:51:47.696Z,59.80
2022-11-19T21:54:16.173Z,59.90
2022-11-19T21:56:44.587Z,66.70
2022-11-19T21:59:13.403Z,62.50
2022-11-19T22:01:41.763Z,64.30
2022-11-19T22:04:14.362Z,67.00
2022-11-19T22:06:42.553Z,67.60
2022-11-19T22:09:10.773Z,69.30
2022-11-19T22:11:39.186Z,70.90
2022-11-19T22:14:09.405Z,75.30
2022-11-19T22:16:39.382Z,70.60
2022-11-19T22:19:08.054Z,72.40
2022-11-19T22:21:36.476Z,72.90
2022-11-19T22:24:05.377Z,73.20
2022-11-19T22:26:33.438Z,74.10
2022-11-19T22:29:01.555Z,73.10
2022-11-19T22:31:29.739Z,71.60
2022-11-19T22:33:57.696Z,74.30
2022-11-19T22:36:25.798Z,75.40
2022-11-19T22:38:53.958Z,72.80
2022-11-19T22:41:22.980Z,73.40
2022-11-19T22:43:51.417Z,68.60
2022-11-19T22:46:20.305Z,68.10
2022-11-19T22:48:48.736Z,66.10
2022-11-19T22:51:20.801Z,66.80
2022-11-19T22:53:51.068Z,67.20
2022-11-19T22:56:25.357Z,68.90
2022-11-19T22:58:54.046Z,62.50
2022-11-19T23:01:28.949Z,63.10
2022-11-19T23:03:59.528Z,62.60
2022-11-19T23:06:27.989Z,60.60
2022-11-19T23:08:56.922Z,58.20
2022-11-19T23:11:44.060Z,61.10
2022-11-19T23:14:15.937Z,62.20
2022-11-19T23:16:44.873Z,60.30
2022-11-19T23:19:14.254Z,59.30
2022-11-19T23:21:42.655Z,59.30
2022-11-19T23:24:11.785Z,60.70
2022-11-19T23:26:40.254Z,61.50
2022-11-19T23:29:09.390Z,59.30
2022-11-19T23:31:40.661Z,57.50
2022-11-19T23:34:08.936Z,60.30
2022-11-19T23:36:39.911Z,59.80
2022-11-19T23:39:15.249Z,59.90
2022-11-19T23:41:44.166Z,56.60
2022-11-19T23:44:12.608Z,61.50
2022-11-19T23:46:41.133Z,58.10
2022-11-19T23:49:11.051Z,57.00
2022-11-19T23:51:40.270Z,57.10
2022-11-19T23:54:08.562Z,55.20
2022-11-19T23:56:37.182Z,60.00
2022-11-19T23:59:06.206Z,56.30
